Station: Bankstown  

  Atmospheric Gas Attenuation - ITU Rec 676-11   ----------------- dB/100km -----------------
Date Time Temp RH % AH g/m3 Dew Point Wind Direction Speed kph Gust kph Barometer mB Rainfall Since 9am 24GHz 47GHz 76GHz 122GHz 134GHz 241GHz
08/05 12:30 19.4 38 6.34 4.7 22 35 1016.8 0 14.6 21.2 29.2 76.1 65.3 223.0
08/05 12:20 19.7 39 6.62 5.4 24 32 1017 0 15.1 21.5 30.1 78.4 68.2 233.4
08/05 12:10 19.3 39 6.47 5 22 32 1017.1 0 14.8 21.4 29.7 77.4 66.9 228.5
08/05 12:00 18.8 40 6.44 4.9 22 41 1017.3 0 14.8 21.5 29.8 77.7 66.9 228.8
08/05 11:50 18.6 40 6.37 4.8 20 28 1017.5 0 14.7 21.4 29.6 77.2 66.3 226.6
08/05 11:40 18.4 41 6.45 4.9 24 28 1017.6 0 14.8 21.6 30.0 78.2 67.4 230.3
08/05 11:30 18.5 40 6.33 4.7 26 46 1017.8 0 14.6 21.4 29.5 77.0 66.0 225.3
08/05 11:20 17.9 41 6.26 4.5 30 39 1017.9 0 14.5 21.5 29.5 76.9 65.7 224.1
08/05 11:10 18 42 6.45 4.9 19 32 1018 0 14.9 21.7 30.1 78.6 67.8 231.6
08/05 11:00 17.7 42 6.34 4.6 26 41 1018.1 0 14.6 21.6 29.8 77.8 66.7 228.0
08/05 10:50 18 42 6.45 4.9 35 43 1018.3 0 14.9 21.7 30.1 78.6 67.8 231.6
08/05 10:40 17.7 43 6.49 5 24 32 1018.3 0 14.9 21.8 30.4 79.3 68.5 234.1
08/05 10:30 17.3 43 6.33 4.6 28 41 1018.5 0 14.6 21.7 30.0 78.2 67.0 228.8
08/05 10:20 17.1 44 6.4 4.8 30 41 1018.3 0 14.8 21.9 30.3 79.0 68.0 232.1
08/05 10:10 17.2 45 6.59 5.2 26 32 1018.6 0 15.2 22.1 30.9 80.7 70.1 239.7
08/05 10:00 16.9 47 6.76 5.5 15 24 1018.7 0 15.5 22.4 31.7 82.7 72.4 247.7
08/05 09:50 16.3 50 6.94 5.9 13 15 1018.7 0 15.9 22.8 32.5 85.0 75.1 257.1
08/05 09:40 15.6 48 6.38 4.6 1018.8 0 14.8 22.2 30.8 80.3 69.0 235.7
08/05 09:30 15.3 49 6.4 4.7 11 20 1018.7 0 14.8 22.3 31.0 80.8 69.5 237.4
08/05 09:20 15.1 50 6.45 4.8 7 9 1018.8 0 15.0 22.4 31.2 81.5 70.3 240.1
08/05 09:10 14.3 50 6.14 4 9 11 1018.8 0 14.3 22.2 30.4 79.3 67.3 229.4
08/05 09:00 14.2 52 6.35 4.5 9 13 1018.8 0 14.8 22.5 31.2 81.4 69.9 238.6
08/05 08:50 13.8 53 6.32 4.4 9 11 1018.9 0 14.7 22.6 31.3 81.6 69.9 238.5
08/05 08:40 13.3 55 6.35 4.5 9 11 1018.9 0 14.8 22.7 31.6 82.4 70.7 241.3
08/05 08:30 13.1 55 6.28 4.3 9 15 1018.8 0 14.7 22.7 31.4 81.9 70.0 238.9
08/05 08:20 12.4 56 6.12 3.9 11 15 1018.7 0 14.4 22.6 31.0 81.0 68.7 234.0
08/05 08:10 11.7 59 6.17 4 7 9 1018.7 0 14.5 22.8 31.5 82.2 69.9 238.2
08/05 08:00 11.1 61 6.15 3.9 9 15 1018.6 0 14.5 23.0 31.7 82.6 70.2 239.1
08/05 07:50 10.7 62 6.09 3.7 9 13 1018.5 0 14.4 23.0 31.6 82.4 69.8 237.7
08/05 07:40 10.3 63 6.03 3.6 7 9 1018.5 0 14.2 23.0 31.5 82.2 69.4 236.2
08/05 07:30 9.7 65 5.99 3.4 7 9 1018.5 0 14.2 23.1 31.6 82.4 69.4 236.2
08/05 07:20 9.3 67 6.02 3.5 6 7 1018.4 0 14.3 23.2 31.9 83.1 70.1 238.7
08/05 07:10 8.8 68 5.92 3.2 7 9 1018.4 0 14.1 23.2 31.7 82.6 69.3 235.7
08/05 07:00 8.5 69 5.89 3.1 9 11 1018.4 0 14.0 23.2 31.7 82.6 69.2 235.3
08/05 06:50 8.5 68 5.81 2.9 9 9 1018.5 0 13.8 23.1 31.4 81.8 68.1 231.7
08/05 06:40 8.8 68 5.92 3.2 6 7 1018.4 0 14.1 23.2 31.7 82.6 69.3 235.7
08/05 06:30 8.8 67 5.83 3 9 13 1018.4 0 13.9 23.0 31.3 81.7 68.1 231.7
08/05 06:20 8.7 66 5.71 2.7 11 13 1018.2 0 13.6 22.9 30.9 80.5 66.7 226.6
08/05 06:10 8.7 65 5.62 2.5 11 13 1018.3 0 13.4 22.7 30.6 79.6 65.6 222.6
08/05 06:00 8.3 68 5.73 2.8 7 11 1018.4 0 13.7 23.0 31.1 81.2 67.3 228.7
08/05 05:50 8.5 67 5.72 2.7 9 11 1018.3 0 13.7 22.9 31.0 80.8 67.0 227.6
08/05 05:40 8.4 67 5.69 2.6 9 9 1018.2 0 13.6 22.9 30.9 80.6 66.7 226.6
08/05 05:30 8.8 66 5.75 2.8 7 11 1018.2 0 13.7 22.9 31.0 80.8 67.1 228.1
08/05 05:20 9 67 5.91 3.2 7 7 1018.1 0 14.0 23.1 31.5 82.3 69.0 234.6
08/05 05:10 8.8 67 5.83 3 9 11 1018.2 0 13.9 23.0 31.3 81.7 68.1 231.7
08/05 05:00 8.8 65 5.66 2.6 9 13 1018.1 0 13.5 22.8 30.7 79.9 66.0 224.1
08/05 04:50 8.8 64 5.57 2.4 9 11 1018.2 0 13.3 22.6 30.3 79.0 64.8 220.1
08/05 04:40 8.9 64 5.61 2.5 7 9 1018.2 0 13.4 22.7 30.4 79.3 65.3 221.6
08/05 04:30 8.8 64 5.57 2.4 7 11 1018.3 0 13.3 22.6 30.3 79.0 64.8 220.1
08/05 04:20 9.2 62 5.54 2.3 7 7 1018.3 0 13.2 22.5 30.1 78.3 64.1 217.7
08/05 04:10 9.7 60 5.53 2.3 9 11 1018 0 13.2 22.3 29.8 77.7 63.6 215.9
08/05 04:00 9.8 59 5.48 2.2 11 17 1018.1 0 13.1 22.2 29.6 77.1 62.9 213.4
08/05 03:50 10 58 5.45 2.1 11 11 1018.1 0 13.0 22.2 29.4 76.6 62.4 211.6
08/05 03:40 10 59 5.55 2.4 15 17 1018.2 0 13.2 22.3 29.8 77.6 63.6 216.0
08/05 03:30 10.1 58 5.49 2.2 13 17 1018.3 0 13.1 22.2 29.5 76.9 62.8 213.1
08/05 03:20 10 58 5.45 2.1 11 15 1018.5 0 13.0 22.2 29.4 76.6 62.4 211.7
08/05 03:10 10.2 57 5.43 2.1 13 19 1018.6 0 13.0 22.1 29.3 76.3 62.0 210.3
08/05 03:00 10.2 57 5.43 2.1 13 19 1018.6 0 13.0 22.1 29.3 76.3 62.0 210.3
08/05 02:50 10.4 56 5.4 2 13 17 1018.7 0 12.9 22.0 29.1 75.8 61.5 208.5
08/05 02:40 10.5 55 5.34 1.9 13 15 1018.7 0 12.8 21.9 28.9 75.1 60.7 205.7
08/05 02:30 10.4 56 5.4 2 13 20 1018.8 0 12.9 22.0 29.1 75.8 61.5 208.5
08/05 02:20 10.1 56 5.3 1.7 13 15 1018.8 0 12.7 21.9 28.9 75.1 60.5 205.0
08/05 02:10 10 56 5.26 1.6 13 17 1018.9 0 12.6 21.9 28.7 74.8 60.1 203.5
08/05 02:00 10 56 5.26 1.6 15 24 1019 0 12.6 21.9 28.8 74.8 60.1 203.6
08/05 01:50 10.1 55 5.2 1.5 13 20 1019.1 0 12.5 21.8 28.5 74.1 59.3 200.8
08/05 01:40 10.1 55 5.2 1.5 15 17 1019.2 0 12.5 21.8 28.5 74.1 59.3 200.8
08/05 01:30 10.2 54 5.14 1.3 15 24 1019.3 0 12.4 21.7 28.3 73.5 58.5 198.0
08/05 01:20 10.2 53 5.04 1.1 13 17 1019.4 0 12.1 21.5 27.9 72.5 57.3 193.7
08/05 01:10 10.2 53 5.04 1.1 15 19 1019.5 0 12.1 21.5 27.9 72.5 57.3 193.7
08/05 01:00 10.4 52 5.01 1 15 24 1019.5 0 12.1 21.5 27.7 72.0 56.8 192.0
08/05 00:50 10.5 50 4.85 0.5 19 24 1019.6 0 11.7 21.2 27.1 70.4 54.8 185.0
08/05 00:40 10.5 50 4.85 0.5 22 26 1019.6 0 11.7 21.2 27.1 70.4 54.8 185.0
08/05 00:20 10.4 49 4.72 0.2 19 22 1019.7 0 11.5 21.0 26.7 69.2 53.3 179.8
08/05 00:10 10.5 49 4.75 0.3 15 19 1019.7 0 11.5 21.1 26.7 69.4 53.6 180.9
08/05 00:00 10.2 50 4.76 0.3 13 19 1019.8 0 11.6 21.1 26.9 69.8 53.9 182.0
07/05 23:50 10.4 49 4.72 0.2 11 19 1019.8 0 11.5 21.0 26.7 69.2 53.3 179.8
07/05 23:40 10.4 49 4.72 0.2 13 15 1019.8 0 11.5 21.0 26.7 69.2 53.3 179.8
07/05 23:30 10.2 50 4.76 0.3 9 15 1019.7 0 11.6 21.1 26.9 69.8 53.9 181.9
07/05 23:20 10.3 50 4.79 0.3 13 17 1019.8 0 11.6 21.2 27.0 70.0 54.2 183.0
07/05 23:10 10.3 50 4.79 0.3 13 15 1019.6 0 11.6 21.2 27.0 70.0 54.2 183.0
07/05 23:00 10.3 50 4.79 0.3 15 22 1019.5 0 11.6 21.2 26.9 70.0 54.2 182.9
07/05 22:50 10.5 49 4.75 0.3 15 19 1019.5 0 11.5 21.0 26.7 69.4 53.6 180.8
07/05 22:40 10.5 50 4.85 0.5 1019.5 0 11.7 21.2 27.1 70.4 54.8 185.0
07/05 22:30 10.5 49 4.75 0.3 15 26 1019.6 0 11.5 21.1 26.7 69.4 53.6 180.8
07/05 22:20 10.6 48 4.69 0.1 1019.6 0 11.4 20.9 26.5 68.8 52.8 178.1
07/05 22:10 10.9 47 4.68 0 22 28 1019.7 0 11.4 20.9 26.4 68.4 52.5 177.1
07/05 22:00 11 47 4.71 0.1 17 28 1019.8 0 11.4 20.9 26.4 68.6 52.8 178.1
07/05 21:50 10.8 47 4.65 0 17 24 1019.8 0 11.3 20.8 26.3 68.2 52.2 176.0
07/05 21:40 10.8 47 4.65 0 15 19 1019.9 0 11.3 20.8 26.3 68.2 52.2 176.1
07/05 21:30 11 46 4.61 -0.2 19 28 1019.8 0 11.2 20.7 26.1 67.7 51.6 174.0
07/05 21:20 11.1 46 4.63 -0.1 17 20 1019.7 0 11.2 20.7 26.1 67.8 51.8 174.6
07/05 21:10 11.3 45 4.59 -0.2 17 19 1019.7 0 11.2 20.6 25.9 67.2 51.2 172.5
07/05 21:00 11.4 45 4.62 -0.1 20 32 1019.6 0 11.2 20.7 26.0 67.4 51.5 173.5
07/05 20:50 11.4 45 4.62 -0.1 15 19 1019.6 0 11.2 20.7 26.0 67.4 51.5 173.5
07/05 20:40 11.5 44 4.55 -0.3 24 30 1019.4 0 11.1 20.5 25.7 66.7 50.6 170.4
07/05 20:30 11.5 44 4.55 -0.3 19 28 1019.4 0 11.1 20.5 25.7 66.7 50.6 170.4
07/05 20:20 11.6 43 4.47 -0.5 17 19 1019.4 0 10.9 20.4 25.4 65.8 49.6 166.9
07/05 20:10 11.7 43 4.5 -0.4 22 28 1019.2 0 11.0 20.4 25.5 66.0 49.9 167.9
07/05 20:00 11.9 42 4.45 -0.6 19 28 1019.1 0 10.8 20.3 25.2 65.4 49.2 165.4
07/05 19:50 11.8 42 4.42 -0.7 24 28 1019 0 10.8 20.3 25.1 65.2 48.9 164.4

Last Refresh: 08-May-2026 12:08:17

Bureau of Meteorology